Nearby METAR Reports

 

KHIF - Hill Afb/Ogden, Utah, USA
Distance from station: ENE 6mi, 9km
Updated: Fri, 24-Sep-2021 4:58am MDT
Clear
Clear
 Wind from ENE
Wind: ENE 12 mph , 19 km/h
Temperature: 55°F , 13°C
Dew Point: 36°F , 2°C
Humidity: 47%
Barometer: 30.21 inHg , 1023 hPa
Clouds: Clear
Visibility: 10 miles , 16 km
2021/09/24 10:58 KHIF 241058Z AUTO 06010KT 10SM CLR 13/02 A3021 RMK AO2 SLP183 T01260016
KOGD - Ogden, Utah, USA
Distance from station: NNE 9mi, 14km
Updated: Fri, 24-Sep-2021 4:53am MDT
Clear
Clear
 Wind from SSW
Wind: SSW 5 mph , 7 km/h
Temperature: 54°F , 12°C
Dew Point: 37°F , 3°C
Humidity: 54%
Barometer: 30.20 inHg , 1022.7 hPa
Clouds: Clear
Visibility: 10 miles , 16 km
2021/09/24 10:53 KOGD 241053Z AUTO 20004KT 10SM CLR 12/03 A3020 RMK AO2 SLP182 T01220028
 
KSLC - Salt Lake City, Utah, USA
Distance from station: SSE 21mi, 34km
Updated: Fri, 24-Sep-2021 4:54am MDT
Clear
Clear
 Wind from calm
Wind: Calm
Temperature: 55°F , 13°C
Dew Point: 45°F , 7°C
Humidity: 67%
Barometer: 30.20 inHg , 1022.7 hPa
Clouds: Clear
Visibility: 10 miles , 16 km
2021/09/24 10:54 KSLC 241054Z 00000KT 10SM CLR 13/07 A3020 RMK AO2 SLP185 T01330067
KLGU - Logan, Utah, USA
Distance from station: NNE 50mi, 80km
Updated: Fri, 24-Sep-2021 4:51am MDT
Clear
Clear
 Wind from calm
Wind: Calm
Temperature: 46°F , 8°C
Dew Point: 37°F , 3°C
Humidity: 71%
Barometer: 30.26 inHg , 1024.7 hPa
Clouds: Clear
Visibility: 10 miles , 16 km
2021/09/24 10:51 KLGU 241051Z AUTO 00000KT 10SM CLR 08/03 A3026 RMK AO2 SLP211 T00780028
 
K36U - Heber/Russ Mcdon, Utah, USA
Distance from station: SE 53mi, 85km
Updated: Wed, 11-Oct-2017 6:50pm MDT
NOT Current
Clear
Clear
 Wind from SSW
Wind: SSW 10 mph , 17 km/h, Gust: 18 mph , 30 km/h
Temperature: 63°F , 17°C
Dew Point: 16°F , -9°C
Humidity: 16%
Barometer: 29.87 inHg , 1011.5 hPa
Clouds: Clear
Visibility: 10 miles , 16 km
2017/10/12 00:50 K36U 120050Z AUTO 21009G16KT 10SM CLR 17/M09 A2987 RMK AO2
KEVW - Evanston, Wyoming, USA
Distance from station: ENE 55mi, 89km
Updated: Fri, 24-Sep-2021 4:53am MDT
Clear
Clear
 Wind from E
Wind: E 3 mph , 6 km/h
Temperature: 43°F , 6°C
Dew Point: 30°F , -1°C
Humidity: 61%
Barometer: 30.35 inHg , 1027.8 hPa
Clouds: Clear
Visibility: 10 miles , 16 km
2021/09/24 10:53 KEVW 241053Z AUTO 10003KT 10SM CLR 06/M01 A3035 RMK AO2 SLP208 T00611006
 
KPVU - Provo Muni, Utah, USA
Distance from station: SSE 62mi, 100km
Updated: Fri, 24-Sep-2021 4:56am MDT
Clear
Clear
 Wind from SE
Wind: SE 7 mph , 11 km/h
Temperature: 50°F , 10°C
Wind Chill: 47°F , 8°C
Dew Point: 36°F , 2°C
Humidity: 58%
Barometer: 30.23 inHg , 1023.7 hPa
Clouds: Clear
Visibility: 10 miles , 16 km
2021/09/24 10:56 KPVU 241056Z AUTO 13006KT 10SM CLR 10/02 A3023 RMK AO2 SLP200 T01000022
KDPG - Dugway Prvg Grou, Utah, USA
Distance from station: SW 75mi, 121km
Updated: Thu, 23-Sep-2021 1:55pm MDT
NOT Current
Partly cloudy
Partly cloudy
 Wind from NNE
Wind: NNE 9 mph , 15 km/h
Temperature: 77°F , 25°C
Dew Point: 32°F , 0°C
Humidity: 19%
Barometer: 30.12 inHg , 1020 hPa
Clouds: Partly cloudy
Visibility: 30 miles , 48 km
Cloud details: Few Clouds 9000 ft
Partly cloudy 22000 ft
2021/09/23 19:55 KDPG 231955Z 03008KT 30SM FEW090 SCT220 25/M00 A3012 RMK SLP160 T02541005
 
KENV - Wendover (aut), Utah, USA
Distance from station: WSW 105mi, 169km
Updated: Fri, 24-Sep-2021 4:56am MDT
Clear
Clear
 Wind from calm
Wind: Calm
Temperature: 54°F , 12°C
Dew Point: 34°F , 1°C
Humidity: 47%
Barometer: 30.22 inHg , 1023.4 hPa
Clouds: Clear
Visibility: 10 miles , 16 km
2021/09/24 10:56 KENV 241056Z AUTO 00000KT 10SM CLR 12/01 A3022 RMK AO2 SLP206 T01220006
KPUC - Price, Utah, USA
Distance from station: SE 123mi, 197km
Updated: Fri, 24-Sep-2021 4:53am MDT
Clear
Clear
 Wind from NNW
Wind: NNW 5 mph , 7 km/h
Temperature: 50°F , 10°C
Wind Chill: 48°F , 9°C
Dew Point: 27°F , -3°C
Humidity: 40%
Barometer: 30.21 inHg , 1023 hPa
Clouds: Clear
Visibility: 10 miles , 16 km
2021/09/24 10:53 KPUC 241053Z AUTO 34004KT 10SM CLR 10/M03 A3021 RMK AO2 SLP174 T01001028
 
KPIH - Pocatello, Idaho, USA
Distance from station: NNW 130mi, 208km
Updated: Fri, 24-Sep-2021 4:53am MDT
Clear
Clear
 Wind from WSW
Wind: WSW 5 mph , 7 km/h
Temperature: 41°F , 5°C
Wind Chill: 38°F , 3°C
Dew Point: 34°F , 1°C
Humidity: 76%
Barometer: 30.27 inHg , 1025.1 hPa
Clouds: Clear
Visibility: 10 miles , 16 km
2021/09/24 10:53 KPIH 241053Z 25004KT 10SM CLR 05/01 A3027 RMK AO2 SLP226 T00500011
KBYI - Burley, Idaho, USA
Distance from station: NW 134mi, 216km
Updated: Fri, 24-Sep-2021 4:53am MDT
Clear
Clear
 Wind from E
Wind: E 3 mph , 6 km/h
Temperature: 43°F , 6°C
Dew Point: 36°F , 2°C
Humidity: 76%
Barometer: 30.25 inHg , 1024.4 hPa
Clouds: Clear
Visibility: 10 miles , 16 km
2021/09/24 10:53 KBYI 241053Z AUTO 10003KT 10SM CLR 06/02 A3025 RMK AO2 SLP223 T00610022
 
KVEL - Vernal, Utah, USA
Distance from station: ESE 140mi, 226km
Updated: Fri, 24-Sep-2021 4:53am MDT
Clear
Clear
 Wind from WNW
Wind: WNW 3 mph , 6 km/h
Temperature: 43°F , 6°C
Dew Point: 32°F , 0°C
Humidity: 66%
Barometer: 30.23 inHg , 1023.7 hPa
Clouds: Clear
Visibility: 10 miles , 16 km
2021/09/24 10:53 KVEL 241053Z AUTO 29003KT 10SM CLR 06/00 A3023 RMK AO2 SLP192 T00560000
KBPI - Big Piney, Wyoming, USA
Distance from station: NE 145mi, 234km
Updated: Fri, 24-Sep-2021 4:53am MDT
Clear
Clear
 Wind from calm
Wind: Calm
Temperature: 36°F , 2°C
Dew Point: 28°F , -2°C
Humidity: 75%
Barometer: 30.34 inHg , 1027.4 hPa
Clouds: Clear
Visibility: 10 miles , 16 km
2021/09/24 10:53 KBPI 241053Z AUTO 00000KT 10SM CLR 02/M02 A3034 RMK AO2 SLP214 T00171022